Time;durP1;ratioP1;P1;durP2;ratioP2;P2;SDS_P1;SDS_P2;PMS_P1;PMS_P2;Temp;Humidity;BMP_temperature;BMP_pressure;BME280_temperature;BME280_humidity;BME280_pressure;Samples;Min_cycle;Max_cycle;Signal;HPM_P1;HPM_P2
2024/01/28 00:00:25;;;;;;;3.92;2.05;;;;;;;4.00;58.38;95978.44;6215576;23;20075;-88
2024/01/28 00:02:58;;;;;;;4.13;2.13;;;;;;;4.12;57.90;95981.34;6215874;23;20076;-88
2024/01/28 00:05:30;;;;;;;3.63;2.08;;;;;;;3.96;57.77;95974.59;6192525;23;20011;-88
2024/01/28 00:07:56;;;;;;;4.95;2.47;;;;;;;3.94;57.65;95976.59;6191920;23;20012;-88
2024/01/28 00:10:32;;;;;;;;;;;;;;;;;;;;;
2024/01/28 00:13:07;;;;;;;;;;;;;;;;;;;;;
2024/01/28 00:15:33;;;;;;;3.90;2.17;;;;;;;3.95;60.07;95980.78;6215417;23;20374;-88
2024/01/28 00:17:59;;;;;;;5.07;2.42;;;;;;;3.87;59.24;95983.50;6216769;23;20008;-88
2024/01/28 00:20:26;;;;;;;6.70;2.58;;;;;;;3.75;59.14;95976.22;6218246;23;19996;-88
2024/01/28 00:22:52;;;;;;;4.18;2.10;;;;;;;3.77;59.61;95987.22;6193844;23;20001;-88
2024/01/28 00:25:30;;;;;;;;;;;;;;;;;;;;;
2024/01/28 00:27:55;;;;;;;6.55;2.97;;;;;;;3.87;60.66;95981.72;6217536;23;20021;-88
2024/01/28 00:30:21;;;;;;;6.00;2.83;;;;;;;3.79;62.07;95989.59;6192412;23;20059;-88
2024/01/28 00:32:49;;;;;;;7.97;3.30;;;;;;;3.90;63.21;95996.09;6192881;23;20000;-88
2024/01/28 00:35:24;;;;;;;;;;;;;;;;;;;;;
2024/01/28 00:37:57;;;;;;;6.03;2.80;;;;;;;4.09;61.88;95985.09;6217528;23;20096;-88
2024/01/28 00:40:30;;;;;;;8.25;2.60;;;;;;;4.23;60.35;95986.03;6194343;23;20001;-88
2024/01/28 00:42:58;;;;;;;5.90;2.67;;;;;;;4.14;61.45;95983.75;6194789;23;19992;-88
2024/01/28 00:45:34;;;;;;;;;;;;;;;;;;;;;
2024/01/28 00:47:59;;;;;;;5.20;2.65;;;;;;;4.26;59.58;95977.06;6217392;23;20083;-88
2024/01/28 00:50:27;;;;;;;8.32;3.35;;;;;;;4.43;59.93;95984.56;6192893;23;20391;-88
2024/01/28 00:53:00;;;;;;;5.20;2.78;;;;;;;4.63;58.93;95979.53;6193377;23;20005;-88
2024/01/28 00:55:33;;;;;;;6.72;3.10;;;;;;;4.59;58.34;95981.72;6217745;23;20000;-88
2024/01/28 00:58:00;;;;;;;5.57;3.00;;;;;;;4.41;58.89;95977.00;6217193;23;19996;-88
2024/01/28 01:00:26;;;;;;;7.30;3.08;;;;;;;4.13;61.10;95974.34;6217358;23;19993;-88
2024/01/28 01:02:53;;;;;;;5.40;2.50;;;;;;;4.08;60.46;95977.50;6192590;23;19992;-88
2024/01/28 01:05:19;;;;;;;5.22;2.50;;;;;;;3.88;62.12;95979.94;6192594;23;20000;-89
2024/01/28 01:07:52;;;;;;;10.30;3.40;;;;;;;4.00;62.76;95978.44;6217303;23;20398;-88
2024/01/28 01:10:25;;;;;;;6.57;3.10;;;;;;;3.85;63.20;95988.88;6193972;23;20036;-88
2024/01/28 01:12:53;;;;;;;6.18;3.20;;;;;;;3.50;64.84;95979.13;6194163;23;20410;-88
2024/01/28 01:15:22;;;;;;;6.70;3.33;;;;;;;3.65;64.99;95983.47;6193097;23;20000;-87
2024/01/28 01:17:49;;;;;;;5.82;3.17;;;;;;;3.59;65.50;95995.38;6193224;23;19997;-88
2024/01/28 01:20:17;;;;;;;6.70;3.28;;;;;;;3.73;65.10;95990.34;6217750;23;19997;-88
2024/01/28 01:22:45;;;;;;;6.28;2.72;;;;;;;3.63;64.80;95998.41;6217350;23;20003;-88
2024/01/28 01:25:16;;;;;;;4.63;2.67;;;;;;;3.55;64.56;96001.94;6218668;23;20390;-88
2024/01/28 01:27:45;;;;;;;5.63;2.90;;;;;;;3.51;65.92;95998.88;6192872;23;20031;-88
2024/01/28 01:30:11;;;;;;;9.73;3.53;;;;;;;3.53;66.15;96001.31;6216884;23;20008;-88
2024/01/28 01:32:44;;;;;;;8.73;3.97;;;;;;;3.66;66.65;95990.28;6192008;23;20052;-88
2024/01/28 01:35:20;;;;;;;8.73;3.72;;;;;;;3.69;64.91;95989.91;6217227;23;19997;-88
2024/01/28 01:37:45;;;;;;;8.07;3.03;;;;;;;3.89;62.78;95997.09;6193990;23;20000;-88
2024/01/28 01:40:15;;;;;;;6.15;2.55;;;;;;;4.07;60.04;96005.25;6217300;23;20012;-88
2024/01/28 01:42:52;;;;;;;;;;;;;;;;;;;;;
2024/01/28 01:45:27;;;;;;;4.55;2.67;;;;;;;4.15;61.30;95999.13;6216944;23;20084;-88
2024/01/28 01:47:52;;;;;;;8.32;3.20;;;;;;;4.10;62.55;96002.28;6217292;23;20072;-88
2024/01/28 01:50:18;;;;;;;6.32;3.10;;;;;;;4.20;61.80;96008.97;6216703;23;20005;-88
2024/01/28 01:52:44;;;;;;;5.63;2.60;;;;;;;4.28;62.39;96008.03;6192016;23;20011;-88
2024/01/28 01:55:20;;;;;;;;;;;;;;;;;;;;;
2024/01/28 01:57:53;;;;;;;6.30;3.10;;;;;;;4.34;62.49;96013.28;6216870;23;20021;-88
2024/01/28 02:00:21;;;;;;;5.65;3.20;;;;;;;4.32;61.12;96012.66;6218238;23;20024;-88
2024/01/28 02:02:49;;;;;;;6.78;3.30;;;;;;;4.26;62.04;96004.81;6192317;23;20000;-88
2024/01/28 02:05:14;;;;;;;7.75;3.60;;;;;;;4.29;61.40;96000.03;6216857;23;20000;-89
2024/01/28 02:07:40;;;;;;;7.20;3.30;;;;;;;4.54;61.96;95997.03;6192043;23;20080;-89
2024/01/28 02:10:09;;;;;;;6.95;3.22;;;;;;;4.47;61.17;95998.81;6216839;23;20011;-88
2024/01/28 02:12:38;;;;;;;5.70;2.88;;;;;;;4.66;60.99;95989.53;6192412;23;20354;-88
2024/01/28 02:15:19;;;;;;;;;;;;;;;;;;;;;
2024/01/28 02:17:45;;;;;;;5.20;2.60;;;;;;;4.59;63.20;95994.69;6216856;23;20027;-88
2024/01/28 02:20:13;;;;;;;5.70;2.92;;;;;;;4.60;62.35;96000.69;6216559;23;20001;-88
2024/01/28 02:22:43;;;;;;;5.97;3.38;;;;;;;4.45;63.20;96000.78;6192013;23;20000;-88
2024/01/28 02:25:09;;;;;;;6.38;3.38;;;;;;;4.33;62.97;95996.09;6192337;23;20028;-88
2024/01/28 02:27:36;;;;;;;5.20;2.90;;;;;;;4.24;63.06;95999.81;6216487;23;20031;-88
2024/01/28 02:30:09;;;;;;;6.75;2.97;;;;;;;4.36;63.49;96000.09;6216137;23;19997;-88
2024/01/28 02:32:34;;;;;;;7.57;3.50;;;;;;;4.39;63.17;96003.13;6193373;23;20087;-88
2024/01/28 02:35:10;;;;;;;;;;;;;;;;;;;;;
2024/01/28 02:37:42;;;;;;;5.38;2.60;;;;;;;4.13;65.13;96010.66;6216786;23;20373;-88
2024/01/28 02:40:08;;;;;;;7.57;2.70;;;;;;;3.99;65.67;96009.75;6216325;23;19997;-88
2024/01/28 02:42:35;;;;;;;5.45;2.70;;;;;;;4.08;66.73;95996.47;6216446;23;20001;-88
2024/01/28 02:45:03;;;;;;;3.78;2.20;;;;;;;4.07;66.27;96000.06;6190984;23;20000;-86
2024/01/28 02:47:30;;;;;;;4.13;2.33;;;;;;;3.95;64.79;95998.94;6191553;23;20322;-87
2024/01/28 02:49:56;;;;;;;5.38;2.20;;;;;;;4.01;64.75;95995.59;6216263;23;20082;-88
2024/01/28 02:52:22;;;;;;;6.82;2.92;;;;;;;3.94;62.50;95997.34;6216061;23;20005;-87
2024/01/28 02:54:47;;;;;;;6.15;2.67;;;;;;;3.89;63.80;95986.72;6191371;23;20300;-87
2024/01/28 02:57:12;;;;;;;4.82;2.50;;;;;;;3.77;63.14;95994.97;6216077;23;19997;-88
2024/01/28 02:59:38;;;;;;;7.85;2.38;;;;;;;3.94;62.60;95992.16;6216026;23;20071;-88
2024/01/28 03:02:05;;;;;;;3.78;2.17;;;;;;;4.15;60.77;95998.31;6190977;23;19997;-88
2024/01/28 03:04:36;;;;;;;4.88;2.45;;;;;;;3.99;62.07;95997.56;6191711;23;19997;-87
2024/01/28 03:07:02;;;;;;;4.13;2.33;;;;;;;3.95;61.16;95999.75;6191618;23;20008;-87
2024/01/28 03:09:27;;;;;;;5.72;2.30;;;;;;;3.92;61.77;95997.50;6217681;23;20000;-87
2024/01/28 03:11:52;;;;;;;3.78;2.38;;;;;;;3.82;62.19;95997.81;6216236;23;20000;-87
2024/01/28 03:14:18;;;;;;;4.93;2.47;;;;;;;3.78;61.73;96003.53;6216560;23;20403;-88
2024/01/28 03:16:45;;;;;;;6.13;2.90;;;;;;;3.64;61.55;96011.19;6191303;23;19999;-87
2024/01/28 03:19:11;;;;;;;5.20;2.42;;;;;;;3.73;62.32;96005.91;6216121;23;20007;-87
2024/01/28 03:21:37;;;;;;;5.90;2.75;;;;;;;3.60;63.29;96009.16;6191209;23;19997;-87
2024/01/28 03:24:02;;;;;;;4.53;2.22;;;;;;;3.48;61.96;96013.97;6191319;23;20000;-86
2024/01/28 03:26:28;;;;;;;4.57;2.42;;;;;;;3.36;62.40;96011.84;6215734;23;20007;-87
2024/01/28 03:28:53;;;;;;;4.45;2.22;;;;;;;3.38;62.78;96014.28;6216054;23;20032;-87
2024/01/28 03:31:19;;;;;;;4.70;2.67;;;;;;;3.36;62.59;96013.66;6215886;23;20001;-87
2024/01/28 03:33:44;;;;;;;4.57;2.20;;;;;;;3.36;62.38;96017.03;6191287;23;20306;-87
2024/01/28 03:36:10;;;;;;;4.35;2.28;;;;;;;3.28;63.16;96013.75;6191016;23;20000;-87
2024/01/28 03:38:36;;;;;;;4.85;2.25;;;;;;;3.25;63.13;96013.13;6216017;23;20007;-87
2024/01/28 03:41:02;;;;;;;3.90;2.00;;;;;;;3.22;63.02;96013.47;6190725;23;20003;-87
2024/01/28 03:43:27;;;;;;;6.05;2.55;;;;;;;3.30;63.33;96012.59;6191156;23;20333;-87
2024/01/28 03:45:52;;;;;;;4.68;2.35;;;;;;;3.20;62.70;96017.22;6191177;23;20058;-86
2024/01/28 03:48:18;;;;;;;5.70;2.58;;;;;;;3.08;62.84;96016.88;6190680;23;20001;-86
2024/01/28 03:50:43;;;;;;;5.72;2.63;;;;;;;3.03;63.90;96016.63;6190461;23;20410;-86
2024/01/28 03:53:09;;;;;;;5.82;2.78;;;;;;;3.07;64.85;96026.44;6215066;23;20004;-87
2024/01/28 03:55:34;;;;;;;6.25;2.50;;;;;;;2.99;64.73;96025.72;6191160;23;20003;-86
2024/01/28 03:58:00;;;;;;;4.57;2.45;;;;;;;2.80;65.17;96026.06;6216100;23;20094;-87
2024/01/28 04:00:28;;;;;;;6.15;2.50;;;;;;;2.65;65.24;96023.44;6215631;23;20028;-87
2024/01/28 04:02:55;;;;;;;5.22;2.50;;;;;;;2.70;65.87;96038.47;6191738;23;20005;-86
2024/01/28 04:05:21;;;;;;;6.80;2.72;;;;;;;2.64;67.30;96034.78;6190824;23;20008;-87
2024/01/28 04:07:46;;;;;;;7.13;2.90;;;;;;;2.66;66.75;96035.41;6215730;23;20000;-86
2024/01/28 04:10:17;;;;;;;5.80;2.80;;;;;;;2.61;67.47;96034.31;6190804;23;20013;-87
2024/01/28 04:12:43;;;;;;;7.75;3.00;;;;;;;2.58;68.22;96037.28;6191509;23;20007;-87
2024/01/28 04:15:08;;;;;;;7.65;2.92;;;;;;;2.53;68.14;96042.97;6190819;23;20001;-87
2024/01/28 04:17:34;;;;;;;5.45;2.55;;;;;;;2.54;68.05;96037.63;6216050;23;20020;-87
2024/01/28 04:20:00;;;;;;;5.30;2.80;;;;;;;2.56;68.20;96036.66;6191074;23;20028;-86
2024/01/28 04:22:26;;;;;;;6.35;2.60;;;;;;;2.50;68.61;96032.97;6215750;23;20012;-86
2024/01/28 04:24:52;;;;;;;6.82;3.08;;;;;;;2.58;68.04;96032.88;6190578;23;19997;-86
2024/01/28 04:27:17;;;;;;;3.17;2.35;;;;;;;2.51;68.07;96030.22;6190580;23;20007;-86
2024/01/28 04:29:42;;;;;;;7.72;2.58;;;;;;;2.50;68.65;96038.16;6215557;23;19996;-87
2024/01/28 04:32:10;;;;;;;5.07;2.47;;;;;;;2.53;68.04;96038.59;6190665;23;20087;-86
2024/01/28 04:34:36;;;;;;;5.60;2.33;;;;;;;2.57;68.06;96033.88;6190868;23;19997;-86
2024/01/28 04:37:01;;;;;;;5.47;2.50;;;;;;;2.45;69.05;96032.69;6190559;23;20051;-87
2024/01/28 04:39:27;;;;;;;4.97;2.65;;;;;;;2.41;68.91;96037.41;6190852;23;20033;-86
2024/01/28 04:41:53;;;;;;;7.80;2.72;;;;;;;2.46;68.30;96031.72;6190410;23;19992;-87
2024/01/28 04:44:21;;;;;;;6.90;3.25;;;;;;;2.53;68.60;96040.38;6190870;23;20000;-87
2024/01/28 04:46:48;;;;;;;6.68;2.53;;;;;;;2.48;69.12;96040.91;6190870;23;20059;-86
2024/01/28 04:49:15;;;;;;;6.70;3.17;;;;;;;2.38;69.36;96048.91;6191022;23;20001;-87
2024/01/28 04:51:41;;;;;;;7.72;3.28;;;;;;;2.32;71.17;96039.25;6190509;23;20032;-86
2024/01/28 04:54:06;;;;;;;8.48;3.38;;;;;;;2.38;70.79;96043.72;6190503;23;20004;-87
2024/01/28 04:56:32;;;;;;;7.85;3.67;;;;;;;2.44;70.70;96044.00;6216210;23;20074;-86
2024/01/28 04:58:58;;;;;;;6.15;2.80;;;;;;;2.39;71.22;96042.75;6190658;23;20350;-87
2024/01/28 05:01:24;;;;;;;9.35;3.63;;;;;;;2.86;69.63;96044.47;6215443;23;19989;-87
2024/01/28 05:03:49;;;;;;;8.70;3.22;;;;;;;2.73;69.31;96040.69;6191142;23;20056;-87
2024/01/28 05:06:15;;;;;;;7.93;3.33;;;;;;;2.93;68.21;96047.94;6217477;23;20000;-87
2024/01/28 05:08:40;;;;;;;6.90;3.65;;;;;;;2.81;69.29;96039.81;6192470;23;20004;-87
2024/01/28 05:11:06;;;;;;;13.65;4.20;;;;;;;2.90;71.21;96053.47;6192323;23;19997;-87
2024/01/28 05:13:32;;;;;;;9.10;3.70;;;;;;;2.83;71.79;96048.19;6217296;23;20007;-87
2024/01/28 05:15:57;;;;;;;8.68;3.75;;;;;;;2.57;73.14;96048.59;6192890;23;20020;-86
2024/01/28 05:18:23;;;;;;;9.75;3.63;;;;;;;2.50;75.22;96051.88;6192029;23;20001;-87
2024/01/28 05:20:48;;;;;;;9.80;4.32;;;;;;;2.39;74.65;96060.84;6217583;23;19993;-87
2024/01/28 05:23:14;;;;;;;7.32;3.63;;;;;;;2.51;73.95;96066.44;6192556;23;20322;-86
2024/01/28 05:25:39;;;;;;;8.32;3.90;;;;;;;2.33;77.77;96069.31;6191764;23;20001;-87
2024/01/28 05:28:07;;;;;;;10.25;4.28;;;;;;;2.21;78.55;96071.47;6217116;23;20000;-86
2024/01/28 05:30:32;;;;;;;8.98;4.10;;;;;;;2.29;79.98;96068.03;6191860;23;20418;-86
2024/01/28 05:32:58;;;;;;;7.60;4.32;;;;;;;2.29;80.24;96075.00;6216857;23;19996;-86
2024/01/28 05:35:24;;;;;;;14.77;4.70;;;;;;;2.37;80.40;96072.38;6192428;23;20007;-87
2024/01/28 05:37:49;;;;;;;12.13;5.03;;;;;;;2.49;80.90;96072.75;6192299;23;20353;-87
2024/01/28 05:40:19;;;;;;;14.88;5.70;;;;;;;2.59;81.26;96075.09;6216769;23;19989;-86
2024/01/28 05:42:45;;;;;;;14.23;5.50;;;;;;;2.68;83.26;96071.47;6192221;23;20010;-87
2024/01/28 05:45:10;;;;;;;14.20;5.57;;;;;;;2.53;85.50;96081.78;6192460;23;20020;-87
2024/01/28 05:47:35;;;;;;;18.50;5.10;;;;;;;2.53;84.31;96077.41;6217987;23;19997;-85
2024/01/28 05:50:04;;;;;;;10.20;4.85;;;;;;;2.60;82.76;96084.47;6216782;23;19992;-88
2024/01/28 05:52:29;;;;;;;12.88;4.97;;;;;;;2.72;80.98;96088.25;6216709;23;20012;-88
2024/01/28 05:54:55;;;;;;;10.13;4.57;;;;;;;2.59;80.21;96083.69;6192269;23;20386;-88
2024/01/28 05:57:20;;;;;;;10.38;4.88;;;;;;;2.52;80.79;96082.75;6191894;23;20009;-88
2024/01/28 05:59:46;;;;;;;10.70;4.22;;;;;;;2.58;79.61;96092.41;6192046;23;20000;-88
2024/01/28 06:02:13;;;;;;;8.48;3.17;;;;;;;2.61;77.06;96086.09;6192062;23;20042;-88
2024/01/28 06:04:40;;;;;;;10.48;3.83;;;;;;;2.47;77.29;96087.66;6192420;23;20028;-88
2024/01/28 06:07:05;;;;;;;9.02;3.90;;;;;;;2.44;77.94;96093.16;6192489;23;20079;-88
2024/01/28 06:09:33;;;;;;;8.93;3.95;;;;;;;2.35;81.34;96088.06;6191982;23;20004;-88
2024/01/28 06:11:58;;;;;;;10.93;4.38;;;;;;;2.51;80.48;96099.25;6192291;23;20004;-87
2024/01/28 06:14:24;;;;;;;7.18;3.55;;;;;;;2.40;80.02;96101.25;6191687;23;20000;-88
2024/01/28 06:16:57;;;;;;;11.13;4.40;;;;;;;2.36;82.80;96100.00;6191737;23;20000;-88
2024/01/28 06:19:37;;;;;;;13.63;5.03;;;;;;;2.46;83.11;96109.34;6193953;23;20398;-88
2024/01/28 06:22:03;;;;;;;11.05;4.85;;;;;;;2.63;81.83;96115.19;6192187;23;20051;-87
2024/01/28 06:24:42;;;;;;;;;;;;;;;;;;;;;
2024/01/28 06:27:09;;;;;;;11.63;4.63;;;;;;;2.30;87.71;96103.28;6216316;23;20079;-89
2024/01/28 06:29:37;;;;;;;16.38;5.32;;;;;;;2.43;86.26;96110.47;6192555;23;20346;-88
2024/01/28 06:32:05;;;;;;;11.80;4.65;;;;;;;2.47;87.30;96114.31;6192132;23;20053;-89
2024/01/28 06:34:33;;;;;;;10.13;4.40;;;;;;;2.44;89.46;96111.25;6192558;23;20004;-88
2024/01/28 06:37:08;;;;;;;;;;;;;;;;;;;;;
2024/01/28 06:39:52;;;;;;;;;;;;;;;;;;;;;
2024/01/28 06:42:18;;;;;;;;;;;;;;;2.26;92.41;96120.13;6217111;23;20144;-88
2024/01/28 06:44:44;;;;;;;11.77;4.53;;;;;;;2.23;94.98;96123.06;6217051;23;19954;-88
2024/01/28 06:47:12;;;;;;;14.57;5.10;;;;;;;2.33;93.39;96126.22;6191506;23;20008;-88
2024/01/28 06:49:37;;;;;;;12.73;4.63;;;;;;;2.23;94.93;96123.88;6192040;23;20011;-87
2024/01/28 06:52:04;;;;;;;13.10;4.80;;;;;;;2.30;94.89;96130.94;6191095;23;20299;-87
2024/01/28 06:54:36;;;;;;;13.18;5.13;;;;;;;2.26;94.91;96130.47;6191612;23;20006;-87
2024/01/28 06:57:05;;;;;;;11.20;4.80;;;;;;;2.39;92.01;96128.13;6216813;23;20019;-88
2024/01/28 06:59:34;;;;;;;13.45;4.75;;;;;;;2.54;91.10;96132.53;6192135;23;20418;-87
2024/01/28 07:02:09;;;;;;;14.40;5.68;;;;;;;2.68;91.29;96136.19;6191588;23;20413;-88
2024/01/28 07:04:36;;;;;;;12.65;5.00;;;;;;;2.76;89.42;96135.31;6192181;23;20001;-87
2024/01/28 07:07:05;;;;;;;9.75;4.57;;;;;;;3.05;88.62;96133.78;6191822;23;20032;-94
2024/01/28 07:13:03;;;;;;;;;;;;;;;;;;;;;
2024/01/28 07:15:34;;;;;;;15.77;4.43;;;;;;;3.48;81.26;96143.56;6217071;23;20071;-94
2024/01/28 07:18:00;;;;;;;12.52;4.63;;;;;;;3.63;81.72;96141.78;6192588;23;20009;-95
2024/01/28 07:20:33;;;;;;;9.52;4.57;;;;;;;3.70;78.97;96139.28;6218178;23;20014;-95
2024/01/28 07:23:05;;;;;;;12.77;4.00;;;;;;;3.68;87.16;96146.44;6195205;23;20012;-94
2024/01/28 07:25:31;;;;;;;13.38;4.47;;;;;;;3.70;92.75;96152.22;6194264;23;20034;-96
2024/01/28 07:27:56;;;;;;;9.13;3.60;;;;;;;3.83;87.69;96143.84;6192300;23;20001;-93
2024/01/28 07:30:32;;;;;;;12.05;4.50;;;;;;;3.96;85.30;96156.16;6191941;23;20019;-94
2024/01/28 07:33:07;;;;;;;10.13;3.90;;;;;;;3.90;83.36;96151.69;6193996;23;20032;-93
2024/01/28 07:35:33;;;;;;;16.38;4.95;;;;;;;3.88;80.93;96151.88;6193133;23;19996;-93
2024/01/28 07:37:58;;;;;;;10.13;4.45;;;;;;;4.02;84.66;96152.84;6191764;23;20028;-94
2024/01/28 07:40:24;;;;;;;8.60;3.97;;;;;;;4.10;86.30;96157.91;6192060;23;20363;-92
2024/01/28 07:42:57;;;;;;;8.13;3.78;;;;;;;4.20;89.17;96152.44;6216312;23;20369;-92
2024/01/28 07:45:24;;;;;;;8.73;3.55;;;;;;;4.23;90.77;96162.47;6193237;23;20001;-93
2024/01/28 07:48:00;;;;;;;11.90;3.97;;;;;;;4.30;89.63;96154.75;6192034;23;20095;-92
2024/01/28 07:50:26;;;;;;;8.20;4.25;;;;;;;4.32;88.36;96164.94;6193857;23;20004;-93
2024/01/28 07:52:51;;;;;;;9.02;3.63;;;;;;;4.38;90.56;96164.22;6191554;23;20368;-91
2024/01/28 07:55:20;;;;;;;8.32;3.75;;;;;;;4.61;90.11;96173.63;6191420;23;20012;-92
2024/01/28 07:57:56;;;;;;;;;;;;;;;;;;;;;
2024/01/28 08:00:29;;;;;;;14.77;4.40;;;;;;;4.61;78.85;96178.81;6216297;23;20039;-91
2024/01/28 08:02:55;;;;;;;11.90;4.47;;;;;;;4.71;80.47;96174.16;6193065;23;20003;-92
2024/01/28 08:05:21;;;;;;;13.30;4.45;;;;;;;4.82;81.66;96159.84;6191832;23;20395;-93
2024/01/28 08:07:46;;;;;;;11.52;3.97;;;;;;;4.91;81.66;96163.13;6191418;23;20001;-92
2024/01/28 08:10:14;;;;;;;13.05;4.45;;;;;;;4.98;81.36;96160.59;6191380;23;20005;-92
2024/01/28 08:12:49;;;;;;;;;;;;;;;;;;;;;
2024/01/28 08:15:15;;;;;;;10.00;3.88;;;;;;;5.21;85.45;96168.97;6216833;23;20036;-91
2024/01/28 08:17:41;;;;;;;11.55;3.92;;;;;;;5.20;88.11;96175.16;6191821;23;20008;-93
2024/01/28 08:20:09;;;;;;;8.48;3.55;;;;;;;5.24;87.36;96167.81;6191360;23;20314;-93
2024/01/28 08:22:42;;;;;;;8.15;3.50;;;;;;;5.35;87.62;96163.88;6191700;23;20127;-92
2024/01/28 08:25:07;;;;;;;9.20;3.95;;;;;;;5.42;87.75;96164.72;6193341;23;20410;-91
2024/01/28 08:27:35;;;;;;;12.68;4.07;;;;;;;5.47;89.50;96169.34;6192713;23;20007;-92
2024/01/28 08:30:01;;;;;;;8.90;3.83;;;;;;;5.52;89.22;96164.38;6192152;23;20009;-93
2024/01/28 08:32:26;;;;;;;10.27;4.40;;;;;;;5.53;85.40;96176.41;6191813;23;20037;-91
2024/01/28 08:34:54;;;;;;;10.88;4.68;;;;;;;5.60;84.26;96173.84;6218224;23;20028;-93
2024/01/28 08:37:22;;;;;;;11.43;4.28;;;;;;;5.62;82.26;96182.25;6218065;23;20023;-92
2024/01/28 08:39:47;;;;;;;9.38;4.38;;;;;;;5.67;82.03;96179.88;6218486;23;19997;-92
2024/01/28 08:42:23;;;;;;;;;;;;;;;;;;;;;
2024/01/28 08:45:01;;;;;;;;;;;;;;;;;;;;;
2024/01/28 08:47:29;;;;;;;10.82;4.05;;;;;;;5.93;80.34;96173.22;6218355;23;20068;-91
2024/01/28 08:50:05;;;;;;;;;;;;;;;;;;;;;
2024/01/28 08:52:33;;;;;;;9.07;3.47;;;;;;;6.01;77.95;96174.84;6217142;23;20040;-90
2024/01/28 08:55:01;;;;;;;10.18;4.07;;;;;;;6.10;74.57;96175.53;6193233;23;20005;-89
2024/01/28 08:57:29;;;;;;;10.90;4.53;;;;;;;6.21;75.04;96185.38;6192812;23;20008;-89
2024/01/28 08:59:59;;;;;;;8.60;4.25;;;;;;;6.32;74.99;96184.84;6193442;23;20005;-91
2024/01/28 09:02:26;;;;;;;7.95;3.42;;;;;;;6.41;73.15;96182.84;6217681;23;20016;-89
2024/01/28 09:05:02;;;;;;;;;;;;;;;;;;;;;
2024/01/28 09:07:30;;;;;;;6.18;3.22;;;;;;;6.62;68.24;96188.91;6218007;23;20458;-90
2024/01/28 09:09:58;;;;;;;7.50;3.20;;;;;;;6.65;64.29;96184.13;6217448;23;20004;-88
2024/01/28 09:12:24;;;;;;;8.10;3.15;;;;;;;6.78;69.76;96195.56;6192441;23;20005;-88
2024/01/28 09:14:49;;;;;;;7.45;3.53;;;;;;;6.77;69.62;96193.97;6193167;23;20000;-89
2024/01/28 09:17:17;;;;;;;5.70;2.72;;;;;;;6.90;65.02;96194.00;6217482;23;20016;-90
2024/01/28 09:19:43;;;;;;;5.93;2.53;;;;;;;6.88;68.03;96195.19;6217027;23;20003;-89
2024/01/28 09:22:08;;;;;;;5.75;2.35;;;;;;;6.97;65.07;96201.00;6217106;23;20359;-88
2024/01/28 09:24:36;;;;;;;7.43;2.17;;;;;;;7.04;62.51;96207.81;6192346;23;20000;-89
2024/01/28 09:27:02;;;;;;;8.15;2.30;;;;;;;7.09;62.94;96209.84;6217314;23;19999;-89
2024/01/28 09:29:30;;;;;;;6.15;2.45;;;;;;;7.27;62.19;96211.88;6192610;23;20072;-89
2024/01/28 09:31:56;;;;;;;6.63;2.25;;;;;;;7.21;62.57;96210.84;6218415;23;20007;-88
2024/01/28 09:34:25;;;;;;;8.77;2.40;;;;;;;7.24;61.12;96212.25;6192644;23;20086;-89
2024/01/28 09:36:50;;;;;;;5.75;2.13;;;;;;;7.33;60.97;96213.66;6217693;23;20011;-90
2024/01/28 09:39:20;;;;;;;5.43;2.55;;;;;;;7.42;62.22;96209.03;6192248;23;20024;-89
2024/01/28 09:41:56;;;;;;;5.75;2.47;;;;;;;7.57;66.68;96218.47;6193187;23;19997;-90
2024/01/28 09:44:21;;;;;;;5.25;2.20;;;;;;;7.63;67.84;96226.28;6217298;23;20000;-90
2024/01/28 09:46:47;;;;;;;3.80;2.10;;;;;;;7.71;66.70;96221.88;6192764;23;20004;-89
2024/01/28 09:49:13;;;;;;;5.45;2.35;;;;;;;7.77;64.41;96226.28;6192597;23;20001;-90
2024/01/28 09:51:41;;;;;;;4.43;2.10;;;;;;;7.85;65.75;96233.09;6191492;23;20326;-89
2024/01/28 09:54:18;;;;;;;;;;;;;;;;;;;;;
2024/01/28 09:56:54;;;;;;;;;;;;;;;;;;;;;
2024/01/28 09:59:20;;;;;;;4.40;1.67;;;;;;;8.14;58.21;96228.41;6217444;23;20080;-91
2024/01/28 10:01:55;;;;;;;;;;;;;;;;;;;;;
2024/01/28 10:04:23;;;;;;;2.03;1.27;;;;;;;8.38;53.99;96236.56;6217003;23;20053;-89
2024/01/28 10:06:59;;;;;;;4.18;1.67;;;;;;;8.38;51.84;96232.13;6217674;23;20035;-90
2024/01/28 10:12:52;;;;;;;2.90;1.52;;;;;;;8.44;52.47;96239.16;6218209;23;20018;-89
2024/01/28 10:15:23;;;;;;;3.55;1.52;;;;;;;8.54;48.83;96235.34;6217581;23;20024;-91
2024/01/28 10:18:25;;;;;;;3.08;1.42;;;;;;;8.54;51.44;96230.13;6192457;23;20024;-90
2024/01/28 10:20:50;;;;;;;3.67;1.40;;;;;;;8.55;47.51;96235.13;6218526;23;20024;-91
2024/01/28 10:23:17;;;;;;;4.47;1.33;;;;;;;8.65;49.48;96237.28;6192071;23;20000;-89
2024/01/28 10:25:45;;;;;;;3.58;1.60;;;;;;;8.63;48.76;96232.28;6192853;23;20024;-90
2024/01/28 10:28:11;;;;;;;3.08;1.35;;;;;;;8.74;49.46;96233.44;6192160;23;20016;-90
2024/01/28 10:30:39;;;;;;;2.42;1.15;;;;;;;8.73;48.95;96233.63;6192174;23;20398;-91
2024/01/28 10:33:05;;;;;;;5.85;1.65;;;;;;;8.84;52.28;96225.13;6192740;23;20012;-91
2024/01/28 10:35:31;;;;;;;3.88;1.40;;;;;;;8.84;49.59;96222.50;6192385;23;20009;-90
2024/01/28 10:37:58;;;;;;;3.10;1.50;;;;;;;8.94;49.65;96216.81;6191934;23;20008;-93
2024/01/28 10:40:39;;;;;;;3.00;1.20;;;;;;;8.97;43.14;96213.81;6192429;23;20003;-91
2024/01/28 10:43:10;;;;;;;5.30;1.30;;;;;;;9.09;44.90;96227.00;6194257;23;20007;-91
2024/01/28 10:45:41;;;;;;;1.63;1.00;;;;;;;9.33;43.75;96219.38;6192586;23;19992;-91
2024/01/28 10:48:17;;;;;;;2.53;1.40;;;;;;;9.14;47.30;96208.84;6193247;23;20039;-94
2024/01/28 10:50:45;;;;;;;3.13;1.40;;;;;;;9.27;45.07;96210.56;6193451;23;20004;-94
2024/01/28 10:53:12;;;;;;;2.72;1.30;;;;;;;9.30;46.84;96209.34;6192592;23;20413;-92
2024/01/28 10:55:42;;;;;;;1.40;1.10;;;;;;;9.50;42.74;96205.78;6191673;23;20131;-92
2024/01/28 10:58:20;;;;;;;;;;;;;;;;;;;;;
2024/01/28 11:00:56;;;;;;;;;;;;;;;;;;;;;
2024/01/28 11:03:42;;;;;;;3.05;1.40;;;;;;;9.50;43.25;96201.31;6217058;23;20020;-94
2024/01/28 11:06:10;;;;;;;3.58;1.50;;;;;;;9.51;44.00;96191.66;6192299;23;20008;-94
2024/01/28 11:08:38;;;;;;;4.75;1.63;;;;;;;9.61;44.74;96192.78;6192687;23;20015;-94
2024/01/28 11:11:14;;;;;;;1.98;1.20;;;;;;;9.64;44.60;96188.94;6191998;23;20008;-92
2024/01/28 11:13:42;;;;;;;2.53;1.50;;;;;;;9.77;44.73;96195.84;6194231;23;20083;-92
2024/01/28 11:16:11;;;;;;;3.50;1.80;;;;;;;9.73;44.24;96189.44;6192583;23;20004;-92
2024/01/28 11:18:36;;;;;;;3.20;1.55;;;;;;;9.69;43.05;96183.06;6191716;23;20103;-90
2024/01/28 11:21:19;;;;;;;4.45;2.50;;;;;;;9.82;44.15;96189.97;6191821;23;20001;-91
2024/01/28 11:23:47;;;;;;;4.53;1.70;;;;;;;9.79;42.47;96185.16;6192523;23;20004;-92
2024/01/28 11:26:18;;;;;;;5.25;2.40;;;;;;;9.88;44.06;96186.47;6191546;23;20012;-92
2024/01/28 11:28:50;;;;;;;5.53;2.70;;;;;;;9.96;45.16;96180.13;6191904;23;19997;-91
2024/01/28 11:31:29;;;;;;;7.68;3.33;;;;;;;10.01;44.13;96180.31;6191172;23;20008;-91
2024/01/28 11:33:55;;;;;;;5.65;2.45;;;;;;;9.98;44.05;96176.28;6191366;23;20001;-91
2024/01/28 11:36:27;;;;;;;4.43;2.40;;;;;;;9.92;44.33;96173.75;6191487;23;20325;-92
2024/01/28 11:39:04;;;;;;;6.53;2.95;;;;;;;9.99;44.42;96180.50;6216419;23;20000;-90
2024/01/28 11:41:39;;;;;;;3.40;2.00;;;;;;;9.97;43.40;96174.69;6192364;23;19996;-93
2024/01/28 11:44:08;;;;;;;8.18;3.00;;;;;;;9.99;44.64;96177.09;6192093;23;20008;-93
2024/01/28 11:46:35;;;;;;;6.13;2.90;;;;;;;10.06;44.81;96174.41;6191740;23;20004;-92
2024/01/28 11:49:02;;;;;;;7.25;2.92;;;;;;;10.12;44.70;96166.50;6191614;23;20012;-92
2024/01/28 11:51:32;;;;;;;7.35;3.53;;;;;;;10.08;43.14;96165.31;6191674;23;20012;-92
2024/01/28 11:54:12;;;;;;;;;;;;;;;;;;;;;
2024/01/28 11:56:40;;;;;;;202.65;72.88;;;;;;;10.12;47.43;96156.00;6216420;23;20036;-92
2024/01/28 11:59:09;;;;;;;244.13;87.15;;;;;;;10.18;44.00;96159.53;6191687;23;20365;-93
2024/01/28 12:01:34;;;;;;;49.08;19.48;;;;;;;10.49;46.49;96163.03;6192294;23;20039;-93
2024/01/28 12:04:00;;;;;;;97.00;38.72;;;;;;;10.38;42.04;96145.41;6191504;23;20005;-91
2024/01/28 12:06:35;;;;;;;23.10;11.18;;;;;;;10.45;42.53;96148.75;6191887;23;20322;-92
2024/01/28 12:09:01;;;;;;;18.02;9.38;;;;;;;10.33;44.83;96149.50;6217654;23;20002;-93
2024/01/28 12:11:29;;;;;;;9.85;5.35;;;;;;;10.45;43.02;96139.09;6216443;23;20004;-92
2024/01/28 12:13:55;;;;;;;11.25;6.00;;;;;;;10.51;45.27;96131.34;6218076;23;19999;-92
2024/01/28 12:16:27;;;;;;;10.52;5.97;;;;;;;10.59;46.14;96144.16;6218742;23;20040;-92
2024/01/28 12:18:53;;;;;;;10.55;5.10;;;;;;;10.68;49.37;96137.56;6193859;23;20012;-93
2024/01/28 12:21:20;;;;;;;19.23;9.93;;;;;;;10.64;44.71;96136.41;6193830;23;20071;-92
2024/01/28 12:23:58;;;;;;;9.98;3.88;;;;;;;10.63;44.49;96126.16;6218702;23;20024;-93